Time;durP1;ratioP1;P1;durP2;ratioP2;P2;SDS_P1;SDS_P2;PMS_P1;PMS_P2;Temp;Humidity;BMP_temperature;BMP_pressure;BME280_temperature;BME280_humidity;BME280_pressure;Samples;Min_cycle;Max_cycle;Signal;HPM_P1;HPM_P2
2023/08/07 00:00:34;;;;;;;808.72;512.92;;;;;;;;;;5036135;28;20893;-81
2023/08/07 00:03:02;;;;;;;774.83;556.85;;;;;;;;;;5046987;28;20429;-81
2023/08/07 00:05:30;;;;;;;778.10;562.72;;;;;;;;;;5034395;28;20854;-83
2023/08/07 00:07:57;;;;;;;777.70;564.00;;;;;;;;;;5039114;28;20422;-77
2023/08/07 00:10:24;;;;;;;780.15;573.97;;;;;;;;;;5048235;28;20529;-79
2023/08/07 00:12:51;;;;;;;772.80;567.38;;;;;;;;;;5033911;28;20963;-79
2023/08/07 00:15:19;;;;;;;775.30;565.72;;;;;;;;;;5047207;28;20936;-77
2023/08/07 00:17:46;;;;;;;771.42;565.08;;;;;;;;;;5052575;28;20923;-78
2023/08/07 00:20:13;;;;;;;776.05;572.63;;;;;;;;;;5059845;28;20850;-82
2023/08/07 00:22:40;;;;;;;774.53;574.08;;;;;;;;;;5050196;28;20453;-82
2023/08/07 00:25:17;;;;;;;784.35;562.35;;;;;;;;;;5046280;28;20424;-78
2023/08/07 00:27:44;;;;;;;779.60;568.67;;;;;;;;;;5052626;28;20922;-80
2023/08/07 00:30:17;;;;;;;777.35;573.53;;;;;;;;;;5042705;28;20486;-80
2023/08/07 00:32:44;;;;;;;775.28;586.30;;;;;;;;;;5048594;28;20980;-83
2023/08/07 00:35:11;;;;;;;772.60;580.65;;;;;;;;;;5049438;28;20482;-80
2023/08/07 00:37:40;;;;;;;773.30;583.23;;;;;;;;;;5037966;28;20509;-80
2023/08/07 00:40:08;;;;;;;765.15;569.92;;;;;;;;;;5049839;28;20440;-81
2023/08/07 00:42:35;;;;;;;776.35;590.40;;;;;;;;;;5050954;28;20434;-85
2023/08/07 00:45:02;;;;;;;771.65;578.63;;;;;;;;;;5041061;28;20482;-78
2023/08/07 00:47:30;;;;;;;772.15;578.03;;;;;;;;;;5041280;28;20439;-81
2023/08/07 00:49:58;;;;;;;775.83;583.33;;;;;;;;;;5056054;28;20522;-78
2023/08/07 00:52:25;;;;;;;773.28;578.88;;;;;;;;;;5046646;28;20434;-80
2023/08/07 00:54:53;;;;;;;775.15;580.95;;;;;;;;;;5036260;28;20431;-80
2023/08/07 00:57:22;;;;;;;766.85;551.58;;;;;;;;;;5046109;28;20497;-80
2023/08/07 00:59:50;;;;;;;773.17;571.08;;;;;;;;;;5042315;28;20429;-79
2023/08/07 01:02:17;;;;;;;772.70;583.85;;;;;;;;;;5047732;28;21148;-80
2023/08/07 01:04:44;;;;;;;769.20;573.10;;;;;;;;;;5046650;28;20429;-77
2023/08/07 01:07:33;;;;;;;775.40;577.00;;;;;;;;;;5043592;28;20468;-78
2023/08/07 01:10:03;;;;;;;784.47;576.15;;;;;;;;;;5053153;28;20439;-80
2023/08/07 01:12:31;;;;;;;841.30;561.25;;;;;;;;;;5039925;28;20529;-81
2023/08/07 01:15:18;;;;;;;771.83;579.70;;;;;;;;;;5059217;28;20470;-78
2023/08/07 01:17:45;;;;;;;774.75;586.97;;;;;;;;;;5049250;28;20433;-77
2023/08/07 01:20:12;;;;;;;775.17;585.40;;;;;;;;;;5045110;28;20449;-81
2023/08/07 01:22:43;;;;;;;776.03;582.20;;;;;;;;;;5041453;28;20455;-78
2023/08/07 01:25:10;;;;;;;842.10;568.33;;;;;;;;;;5040855;28;21101;-79
2023/08/07 01:27:45;;;;;;;775.17;586.40;;;;;;;;;;5064931;28;20432;-77
2023/08/07 01:30:33;;;;;;;772.28;567.53;;;;;;;;;;5041654;28;20462;-80
2023/08/07 01:33:03;;;;;;;775.50;566.80;;;;;;;;;;5040404;28;20461;-79
2023/08/07 01:35:34;;;;;;;781.80;552.05;;;;;;;;;;5041793;28;20513;-75
2023/08/07 01:38:02;;;;;;;814.95;573.65;;;;;;;;;;5041951;28;20462;-78
2023/08/07 01:40:35;;;;;;;775.25;570.80;;;;;;;;;;5041021;28;21121;-75
2023/08/07 01:43:09;;;;;;;774.90;569.20;;;;;;;;;;5065309;28;20477;-75
2023/08/07 01:45:37;;;;;;;772.63;559.53;;;;;;;;;;5054559;28;20510;-78
2023/08/07 01:48:04;;;;;;;776.97;568.57;;;;;;;;;;5050788;28;20541;-76
2023/08/07 01:50:31;;;;;;;781.08;558.33;;;;;;;;;;5054687;28;20496;-77
2023/08/07 01:52:59;;;;;;;777.00;571.90;;;;;;;;;;5043963;28;20438;-76
2023/08/07 01:55:29;;;;;;;773.78;569.75;;;;;;;;;;5050562;28;20437;-77
2023/08/07 01:57:56;;;;;;;773.03;569.78;;;;;;;;;;5039438;28;20509;-74
2023/08/07 02:00:26;;;;;;;777.08;579.88;;;;;;;;;;5048675;28;20475;-76
2023/08/07 02:02:54;;;;;;;774.10;565.03;;;;;;;;;;5041104;28;20435;-75
2023/08/07 02:05:21;;;;;;;774.75;564.95;;;;;;;;;;5052309;28;20429;-76
2023/08/07 02:07:48;;;;;;;776.42;552.53;;;;;;;;;;5060314;28;20491;-77
2023/08/07 02:10:15;;;;;;;777.30;557.58;;;;;;;;;;5061048;28;20468;-76
2023/08/07 02:12:42;;;;;;;786.30;567.17;;;;;;;;;;5053093;28;20435;-74
2023/08/07 02:15:10;;;;;;;810.72;577.05;;;;;;;;;;5044241;28;20470;-76
2023/08/07 02:17:41;;;;;;;795.75;563.97;;;;;;;;;;5050291;28;20515;-79
2023/08/07 02:20:09;;;;;;;772.70;570.00;;;;;;;;;;5044610;28;20919;-76
2023/08/07 02:22:36;;;;;;;773.88;565.45;;;;;;;;;;5043086;28;20510;-76
2023/08/07 02:25:05;;;;;;;772.85;539.72;;;;;;;;;;5050093;28;20431;-76
2023/08/07 02:27:33;;;;;;;772.38;546.78;;;;;;;;;;5048267;28;20454;-76
2023/08/07 02:30:02;;;;;;;777.92;565.25;;;;;;;;;;5038944;28;20479;-76
2023/08/07 02:32:30;;;;;;;774.77;550.23;;;;;;;;;;5052238;28;20485;-74
2023/08/07 02:34:57;;;;;;;776.92;527.05;;;;;;;;;;5046819;28;20442;-75
2023/08/07 02:37:24;;;;;;;788.85;533.17;;;;;;;;;;5044464;28;20520;-76
2023/08/07 02:39:53;;;;;;;777.95;548.40;;;;;;;;;;5039419;28;20521;-76
2023/08/07 02:42:20;;;;;;;801.72;548.05;;;;;;;;;;5043408;28;20426;-78
2023/08/07 02:44:47;;;;;;;776.25;535.30;;;;;;;;;;5051781;28;20432;-78
2023/08/07 02:47:14;;;;;;;780.35;537.95;;;;;;;;;;5055768;28;20427;-75
2023/08/07 02:49:42;;;;;;;781.70;536.70;;;;;;;;;;5044887;28;20428;-78
2023/08/07 02:52:09;;;;;;;788.75;535.13;;;;;;;;;;5033762;28;20430;-75
2023/08/07 02:54:39;;;;;;;785.40;527.40;;;;;;;;;;5048555;28;20992;-77
2023/08/07 02:57:06;;;;;;;791.67;537.05;;;;;;;;;;5048618;28;20435;-77
2023/08/07 02:59:33;;;;;;;786.78;533.95;;;;;;;;;;5038634;28;20450;-75
2023/08/07 03:02:00;;;;;;;780.60;537.13;;;;;;;;;;5043510;28;20454;-79
2023/08/07 03:04:28;;;;;;;772.83;535.22;;;;;;;;;;5048650;28;20847;-79
2023/08/07 03:06:55;;;;;;;775.13;520.90;;;;;;;;;;5055817;28;20429;-77
2023/08/07 03:09:25;;;;;;;778.50;539.85;;;;;;;;;;5056050;28;20440;-79
2023/08/07 03:12:03;;;;;;;782.20;525.50;;;;;;;;;;5051036;28;20435;-77
2023/08/07 03:14:31;;;;;;;782.65;524.30;;;;;;;;;;5046834;28;20424;-76
2023/08/07 03:16:58;;;;;;;775.42;537.78;;;;;;;;;;5049536;28;20518;-77
2023/08/07 03:19:25;;;;;;;773.17;533.90;;;;;;;;;;5046393;28;20541;-78
2023/08/07 03:21:55;;;;;;;777.50;531.03;;;;;;;;;;5055216;28;20431;-77
2023/08/07 03:24:23;;;;;;;777.38;526.63;;;;;;;;;;5058057;28;20431;-74
2023/08/07 03:26:50;;;;;;;778.28;534.75;;;;;;;;;;5055110;28;20466;-76
2023/08/07 03:29:17;;;;;;;781.53;545.33;;;;;;;;;;5039101;28;20786;-76
2023/08/07 03:31:44;;;;;;;780.58;517.50;;;;;;;;;;5043815;28;20934;-74
2023/08/07 03:34:14;;;;;;;778.60;515.20;;;;;;;;;;5037863;28;20430;-77
2023/08/07 03:36:41;;;;;;;801.10;546.15;;;;;;;;;;5037737;28;20481;-78
2023/08/07 03:39:10;;;;;;;772.45;533.47;;;;;;;;;;5050451;28;20915;-80
2023/08/07 03:41:37;;;;;;;770.15;517.25;;;;;;;;;;5041844;28;20957;-75
2023/08/07 03:44:07;;;;;;;782.78;533.90;;;;;;;;;;5032352;28;20431;-75
2023/08/07 03:46:34;;;;;;;774.85;541.35;;;;;;;;;;5055991;28;20429;-77
2023/08/07 03:49:01;;;;;;;799.63;563.97;;;;;;;;;;5051957;28;20521;-80
2023/08/07 03:51:30;;;;;;;781.60;563.17;;;;;;;;;;5058194;28;20440;-79
2023/08/07 03:53:57;;;;;;;777.88;560.03;;;;;;;;;;5038541;28;20431;-74
2023/08/07 03:56:24;;;;;;;782.60;574.23;;;;;;;;;;5040357;28;20577;-76
2023/08/07 03:58:52;;;;;;;788.13;577.55;;;;;;;;;;5048570;28;20451;-76
2023/08/07 04:01:19;;;;;;;788.17;580.70;;;;;;;;;;5049115;28;20793;-77
2023/08/07 04:03:49;;;;;;;783.67;560.60;;;;;;;;;;5036902;28;20497;-76
2023/08/07 04:06:16;;;;;;;780.88;568.38;;;;;;;;;;5055376;28;20443;-78
2023/08/07 04:08:45;;;;;;;786.80;578.08;;;;;;;;;;5033747;28;20772;-80
2023/08/07 04:11:13;;;;;;;779.53;550.80;;;;;;;;;;5044321;28;20434;-81
2023/08/07 04:13:40;;;;;;;779.20;532.03;;;;;;;;;;5070754;28;20507;-78
2023/08/07 04:16:07;;;;;;;790.65;561.60;;;;;;;;;;5070723;28;20769;-76
2023/08/07 04:18:34;;;;;;;786.13;555.40;;;;;;;;;;5047159;28;20438;-79
2023/08/07 04:21:20;;;;;;;787.75;562.78;;;;;;;;;;5037167;28;20429;-77
2023/08/07 04:23:54;;;;;;;789.28;560.90;;;;;;;;;;5048937;28;25175;-76
2023/08/07 04:26:21;;;;;;;785.58;558.58;;;;;;;;;;5042710;28;20437;-77
2023/08/07 04:28:49;;;;;;;789.10;565.77;;;;;;;;;;5055282;28;20970;-77
2023/08/07 04:31:16;;;;;;;788.30;572.20;;;;;;;;;;5038393;28;20477;-77
2023/08/07 04:33:46;;;;;;;794.88;585.97;;;;;;;;;;5035704;28;20442;-76
2023/08/07 04:36:13;;;;;;;787.05;572.15;;;;;;;;;;5042635;28;20811;-76
2023/08/07 04:38:41;;;;;;;787.53;577.17;;;;;;;;;;5039087;28;20442;-75
2023/08/07 04:41:13;;;;;;;789.30;568.50;;;;;;;;;;5040915;28;20827;-76
2023/08/07 04:43:42;;;;;;;789.00;576.83;;;;;;;;;;5041125;28;20429;-76
2023/08/07 04:46:18;;;;;;;789.20;581.42;;;;;;;;;;5034156;28;20435;-77
2023/08/07 04:48:47;;;;;;;796.25;583.00;;;;;;;;;;5048200;28;20526;-76
2023/08/07 04:51:15;;;;;;;792.38;578.83;;;;;;;;;;5046506;28;20440;-78
2023/08/07 04:53:42;;;;;;;790.65;575.13;;;;;;;;;;5051724;28;20434;-76
2023/08/07 04:56:09;;;;;;;796.20;591.35;;;;;;;;;;5057569;28;20510;-76
2023/08/07 04:58:38;;;;;;;798.88;595.20;;;;;;;;;;5053748;28;20502;-81
2023/08/07 05:01:06;;;;;;;796.53;586.17;;;;;;;;;;5038836;28;20431;-75
2023/08/07 05:03:33;;;;;;;788.72;560.80;;;;;;;;;;5045361;28;20931;-76
2023/08/07 05:06:01;;;;;;;796.20;585.35;;;;;;;;;;5044561;28;20491;-77
2023/08/07 05:08:29;;;;;;;801.42;596.97;;;;;;;;;;5040684;28;20439;-78
2023/08/07 05:10:56;;;;;;;800.58;600.17;;;;;;;;;;5050251;28;21032;-76
2023/08/07 05:13:23;;;;;;;803.03;584.70;;;;;;;;;;5043952;28;20517;-76
2023/08/07 05:15:50;;;;;;;807.92;597.80;;;;;;;;;;5056596;28;20483;-77
2023/08/07 05:18:18;;;;;;;803.95;586.70;;;;;;;;;;5041092;28;20459;-77
2023/08/07 05:20:45;;;;;;;805.70;592.33;;;;;;;;;;5038181;28;20502;-77
2023/08/07 05:23:13;;;;;;;802.17;584.83;;;;;;;;;;5046001;28;20866;-76
2023/08/07 05:25:40;;;;;;;804.22;586.28;;;;;;;;;;5051999;28;20433;-78
2023/08/07 05:28:08;;;;;;;807.20;595.80;;;;;;;;;;5050366;28;22893;-78
2023/08/07 05:30:36;;;;;;;803.13;587.63;;;;;;;;;;5051179;28;20457;-78
2023/08/07 05:33:03;;;;;;;809.00;600.00;;;;;;;;;;5055932;28;20517;-80
2023/08/07 05:35:30;;;;;;;804.60;595.63;;;;;;;;;;5052786;28;21098;-77
2023/08/07 05:37:58;;;;;;;806.92;604.50;;;;;;;;;;5055347;28;20485;-80
2023/08/07 05:40:29;;;;;;;803.35;590.28;;;;;;;;;;5049808;28;20973;-78
2023/08/07 05:42:58;;;;;;;806.38;591.60;;;;;;;;;;5041219;28;20433;-80
2023/08/07 05:45:28;;;;;;;805.93;594.63;;;;;;;;;;5056743;28;21213;-79
2023/08/07 05:47:55;;;;;;;801.53;577.05;;;;;;;;;;5041465;28;20444;-79
2023/08/07 05:50:25;;;;;;;810.10;598.92;;;;;;;;;;5055566;28;20429;-79
2023/08/07 05:52:52;;;;;;;807.40;594.03;;;;;;;;;;5056530;28;20469;-79
2023/08/07 05:55:20;;;;;;;805.83;585.10;;;;;;;;;;5058571;28;20494;-79
2023/08/07 05:57:47;;;;;;;808.30;589.58;;;;;;;;;;5045625;28;20454;-78
2023/08/07 06:00:19;;;;;;;813.03;592.40;;;;;;;;;;5043248;28;20506;-79
2023/08/07 06:02:55;;;;;;;815.60;591.00;;;;;;;;;;5040942;28;20433;-78
2023/08/07 06:05:22;;;;;;;812.97;596.22;;;;;;;;;;5057563;28;20516;-77
2023/08/07 06:07:49;;;;;;;815.38;589.50;;;;;;;;;;5062766;28;20470;-79
2023/08/07 06:10:16;;;;;;;810.95;579.92;;;;;;;;;;5043451;28;20462;-79
2023/08/07 06:12:44;;;;;;;820.43;603.00;;;;;;;;;;5047476;28;20459;-78
2023/08/07 06:15:11;;;;;;;816.47;596.80;;;;;;;;;;5058552;28;20901;-79
2023/08/07 06:17:39;;;;;;;823.07;593.17;;;;;;;;;;5067910;28;20849;-79
2023/08/07 06:20:09;;;;;;;816.00;581.83;;;;;;;;;;5037364;28;20449;-79
2023/08/07 06:22:38;;;;;;;809.63;588.55;;;;;;;;;;5051927;28;20441;-79
2023/08/07 06:25:08;;;;;;;806.00;586.30;;;;;;;;;;5049881;28;20421;-79
2023/08/07 06:27:35;;;;;;;807.63;590.58;;;;;;;;;;5047833;28;20463;-79
2023/08/07 06:30:03;;;;;;;804.88;589.47;;;;;;;;;;5043512;28;20915;-80
2023/08/07 06:32:33;;;;;;;805.70;594.63;;;;;;;;;;5040121;28;20467;-80
2023/08/07 06:35:04;;;;;;;810.13;602.90;;;;;;;;;;5037891;28;20468;-79
2023/08/07 06:37:37;;;;;;;805.95;571.47;;;;;;;;;;5033362;28;21001;-79
2023/08/07 06:40:05;;;;;;;804.90;584.55;;;;;;;;;;5043985;28;20958;-79
2023/08/07 06:42:32;;;;;;;802.95;587.38;;;;;;;;;;5055652;28;20421;-79
2023/08/07 06:44:59;;;;;;;798.93;579.07;;;;;;;;;;5037482;28;21057;-80
2023/08/07 06:47:26;;;;;;;801.25;584.63;;;;;;;;;;5040967;28;20915;-79
2023/08/07 06:49:57;;;;;;;803.05;584.78;;;;;;;;;;5043682;28;20431;-77
2023/08/07 06:52:24;;;;;;;803.72;581.80;;;;;;;;;;5037285;28;20536;-80
2023/08/07 06:54:52;;;;;;;803.45;578.33;;;;;;;;;;5038811;28;20957;-79
2023/08/07 06:57:19;;;;;;;800.17;572.73;;;;;;;;;;5044784;28;20991;-79
2023/08/07 06:59:46;;;;;;;805.53;583.72;;;;;;;;;;5047454;28;20461;-79
2023/08/07 07:02:13;;;;;;;808.77;592.40;;;;;;;;;;5044453;28;20467;-78
2023/08/07 07:04:41;;;;;;;807.67;589.15;;;;;;;;;;5042150;28;20442;-79
2023/08/07 07:07:08;;;;;;;810.67;593.40;;;;;;;;;;5047452;28;20461;-80
2023/08/07 07:09:38;;;;;;;824.33;601.78;;;;;;;;;;5045447;28;20435;-79
2023/08/07 07:12:05;;;;;;;821.75;599.22;;;;;;;;;;5045950;28;20433;-80
2023/08/07 07:14:33;;;;;;;823.72;602.38;;;;;;;;;;5042166;28;20945;-79
2023/08/07 07:17:01;;;;;;;826.38;601.83;;;;;;;;;;5052803;28;20427;-78
2023/08/07 07:19:28;;;;;;;829.05;608.08;;;;;;;;;;5049473;28;20457;-79
2023/08/07 07:21:55;;;;;;;834.63;602.10;;;;;;;;;;5054235;28;20871;-79
2023/08/07 07:24:22;;;;;;;838.50;602.60;;;;;;;;;;5050422;28;20765;-79
2023/08/07 07:26:53;;;;;;;842.70;611.83;;;;;;;;;;5043495;28;20447;-79
2023/08/07 07:29:21;;;;;;;843.63;618.60;;;;;;;;;;5049880;28;20433;-79
2023/08/07 07:31:48;;;;;;;845.60;613.38;;;;;;;;;;5043319;28;20470;-79
2023/08/07 07:34:15;;;;;;;847.05;616.53;;;;;;;;;;5036998;28;20429;-79
2023/08/07 07:36:42;;;;;;;851.90;616.83;;;;;;;;;;5044642;28;21188;-78
2023/08/07 07:39:13;;;;;;;850.55;622.90;;;;;;;;;;5045408;28;20438;-79
2023/08/07 07:41:40;;;;;;;843.90;614.55;;;;;;;;;;5042761;28;20785;-78
2023/08/07 07:44:10;;;;;;;845.72;620.80;;;;;;;;;;5046090;28;20455;-78
2023/08/07 07:46:37;;;;;;;841.75;601.00;;;;;;;;;;5043164;28;20437;-79
2023/08/07 07:49:04;;;;;;;849.15;621.55;;;;;;;;;;5048131;28;20464;-79
2023/08/07 07:51:32;;;;;;;841.70;608.67;;;;;;;;;;5047213;28;20946;-79
2023/08/07 07:53:59;;;;;;;849.15;613.83;;;;;;;;;;5045448;28;20473;-79
2023/08/07 07:56:40;;;;;;;849.05;608.63;;;;;;;;;;5052129;28;20444;-75
2023/08/07 07:59:07;;;;;;;853.78;617.55;;;;;;;;;;5049623;28;20453;-79
2023/08/07 08:01:35;;;;;;;853.17;607.95;;;;;;;;;;5048857;28;20516;-78
2023/08/07 08:04:03;;;;;;;850.97;614.45;;;;;;;;;;5045018;28;20433;-79
2023/08/07 08:06:33;;;;;;;856.47;609.40;;;;;;;;;;5046157;28;20523;-78
2023/08/07 08:09:04;;;;;;;861.60;612.70;;;;;;;;;;5041857;28;20998;-79
2023/08/07 08:11:31;;;;;;;862.05;618.78;;;;;;;;;;5036306;28;20853;-79
2023/08/07 08:13:58;;;;;;;863.58;608.28;;;;;;;;;;5040614;28;20513;-78
2023/08/07 08:16:26;;;;;;;861.22;612.10;;;;;;;;;;5036305;28;20437;-77
2023/08/07 08:18:53;;;;;;;859.20;604.42;;;;;;;;;;5033265;28;20430;-78
2023/08/07 08:21:20;;;;;;;859.80;612.17;;;;;;;;;;5032073;28;20435;-78
2023/08/07 08:23:52;;;;;;;857.17;605.60;;;;;;;;;;5046017;28;20455;-79
2023/08/07 08:26:19;;;;;;;858.58;611.15;;;;;;;;;;5042938;28;20437;-76
2023/08/07 08:28:49;;;;;;;859.25;609.42;;;;;;;;;;5048062;28;20827;-78
2023/08/07 08:31:21;;;;;;;857.27;604.70;;;;;;;;;;5052353;28;20555;-78
2023/08/07 08:33:51;;;;;;;852.33;581.90;;;;;;;;;;5039914;28;20435;-79
2023/08/07 08:36:25;;;;;;;848.35;581.92;;;;;;;;;;5054090;28;20423;-79
2023/08/07 08:38:52;;;;;;;850.17;588.97;;;;;;;;;;5049247;28;20902;-78
2023/08/07 08:41:23;;;;;;;843.70;584.83;;;;;;;;;;5044506;28;20431;-79
2023/08/07 08:43:54;;;;;;;846.33;588.30;;;;;;;;;;5046093;28;20480;-77
2023/08/07 08:46:34;;;;;;;855.10;607.22;;;;;;;;;;5044328;28;20431;-78
2023/08/07 08:49:14;;;;;;;853.72;607.58;;;;;;;;;;5055273;28;20429;-79
2023/08/07 08:51:44;;;;;;;854.08;611.83;;;;;;;;;;5046500;28;20516;-78
2023/08/07 08:54:12;;;;;;;854.35;613.08;;;;;;;;;;5047211;28;20995;-77
2023/08/07 08:56:42;;;;;;;851.35;604.53;;;;;;;;;;5051533;28;20469;-78
2023/08/07 08:59:09;;;;;;;852.03;610.13;;;;;;;;;;5053419;28;20446;-78
2023/08/07 09:01:44;;;;;;;846.63;595.00;;;;;;;;;;5041375;28;20437;-78
2023/08/07 09:04:11;;;;;;;835.55;572.83;;;;;;;;;;5044397;28;20429;-77
2023/08/07 09:06:39;;;;;;;850.17;602.17;;;;;;;;;;5044493;28;20437;-78
2023/08/07 09:09:11;;;;;;;859.58;606.17;;;;;;;;;;5048617;28;20429;-79
2023/08/07 09:11:43;;;;;;;856.00;607.92;;;;;;;;;;5053832;28;20440;-79
2023/08/07 09:14:12;;;;;;;857.27;615.57;;;;;;;;;;5051401;28;20874;-78
2023/08/07 09:16:40;;;;;;;858.80;609.83;;;;;;;;;;5045944;28;20429;-79
2023/08/07 09:19:08;;;;;;;851.05;599.03;;;;;;;;;;5039846;28;20455;-80
2023/08/07 09:21:38;;;;;;;851.88;602.83;;;;;;;;;;5046966;28;20429;-79
2023/08/07 09:24:05;;;;;;;849.10;593.00;;;;;;;;;;5064230;28;20419;-76
2023/08/07 09:26:36;;;;;;;843.17;584.70;;;;;;;;;;5040541;28;20434;-80
2023/08/07 09:29:03;;;;;;;831.08;561.08;;;;;;;;;;5051913;28;20425;-78
2023/08/07 09:31:30;;;;;;;829.00;557.22;;;;;;;;;;5036992;28;20522;-80
2023/08/07 09:34:04;;;;;;;837.50;572.10;;;;;;;;;;5044210;28;20528;-79
2023/08/07 09:36:38;;;;;;;827.35;564.28;;;;;;;;;;5048710;28;20495;-80
2023/08/07 09:39:07;;;;;;;815.13;537.05;;;;;;;;;;5041833;28;20514;-78
2023/08/07 09:41:44;;;;;;;813.35;546.42;;;;;;;;;;5056893;28;20484;-79
2023/08/07 09:44:35;;;;;;;823.45;568.38;;;;;;;;;;5045841;28;20431;-79
2023/08/07 09:47:15;;;;;;;843.00;602.88;;;;;;;;;;5041995;28;21182;-78
2023/08/07 09:49:43;;;;;;;813.85;557.45;;;;;;;;;;5044386;28;20443;-78
2023/08/07 09:52:26;;;;;;;838.70;593.75;;;;;;;;;;5050676;28;20425;-78
2023/08/07 09:54:57;;;;;;;840.28;597.75;;;;;;;;;;5043692;28;21578;-78
2023/08/07 09:57:27;;;;;;;842.50;594.95;;;;;;;;;;5047981;28;20444;-78
2023/08/07 10:00:11;;;;;;;840.53;593.13;;;;;;;;;;5039059;28;20442;-79
2023/08/07 10:02:44;;;;;;;832.67;574.43;;;;;;;;;;5049497;28;20433;-79
2023/08/07 10:05:12;;;;;;;836.47;575.97;;;;;;;;;;5048613;28;20505;-78
2023/08/07 10:07:40;;;;;;;848.97;594.20;;;;;;;;;;5045089;28;20460;-79
2023/08/07 10:10:08;;;;;;;851.33;603.87;;;;;;;;;;5052250;28;20432;-79
2023/08/07 10:12:38;;;;;;;857.22;612.42;;;;;;;;;;5043251;28;20497;-79
2023/08/07 10:15:06;;;;;;;856.95;613.10;;;;;;;;;;5032114;28;20785;-80
2023/08/07 10:17:36;;;;;;;852.90;605.00;;;;;;;;;;5033847;28;20488;-79
2023/08/07 10:20:04;;;;;;;853.35;605.78;;;;;;;;;;5046220;28;20835;-79
2023/08/07 10:22:32;;;;;;;854.33;606.00;;;;;;;;;;5054328;28;20427;-77
2023/08/07 10:25:02;;;;;;;842.15;581.75;;;;;;;;;;5041878;28;20431;-80
2023/08/07 10:27:34;;;;;;;865.13;620.13;;;;;;;;;;5038894;28;20431;-79
2023/08/07 10:30:03;;;;;;;867.20;614.28;;;;;;;;;;5045947;28;21076;-78
2023/08/07 10:32:30;;;;;;;871.50;617.17;;;;;;;;;;5037326;28;20433;-79
2023/08/07 10:34:58;;;;;;;875.50;630.00;;;;;;;;;;5035465;28;20459;-77
2023/08/07 10:37:44;;;;;;;879.20;635.15;;;;;;;;;;5057747;28;20916;-79
2023/08/07 10:40:12;;;;;;;888.40;643.92;;;;;;;;;;5039885;28;20493;-80
2023/08/07 10:42:52;;;;;;;896.50;655.42;;;;;;;;;;5046467;28;20433;-80
2023/08/07 10:45:23;;;;;;;902.63;664.43;;;;;;;;;;5051992;28;20486;-79
2023/08/07 10:47:59;;;;;;;910.50;672.20;;;;;;;;;;5034063;28;20493;-78
2023/08/07 10:50:32;;;;;;;902.17;667.05;;;;;;;;;;5041781;28;20434;-79
2023/08/07 10:53:03;;;;;;;905.00;669.05;;;;;;;;;;5047302;28;20436;-79
2023/08/07 10:55:44;;;;;;;892.47;664.50;;;;;;;;;;5037280;28;20435;-80
2023/08/07 10:58:30;;;;;;;901.53;669.47;;;;;;;;;;5047930;28;20509;-80
2023/08/07 11:01:17;;;;;;;893.13;666.77;;;;;;;;;;5032427;28;20610;-80
2023/08/07 11:03:44;;;;;;;898.10;671.30;;;;;;;;;;5052711;28;20442;-80
2023/08/07 11:06:11;;;;;;;883.13;642.10;;;;;;;;;;5052225;28;20458;-79
2023/08/07 11:08:41;;;;;;;883.20;650.85;;;;;;;;;;5051396;28;20910;-79
2023/08/07 11:11:08;;;;;;;888.50;659.37;;;;;;;;;;5043015;28;20458;-79
2023/08/07 11:13:38;;;;;;;880.70;644.70;;;;;;;;;;5060759;28;20435;-78
2023/08/07 11:16:06;;;;;;;884.85;650.85;;;;;;;;;;5054218;28;20517;-79
2023/08/07 11:18:35;;;;;;;886.25;646.05;;;;;;;;;;5039913;28;20435;-77
2023/08/07 11:21:02;;;;;;;890.03;654.90;;;;;;;;;;5039468;28;20460;-80
2023/08/07 11:23:30;;;;;;;891.05;659.97;;;;;;;;;;5053310;28;20431;-80
2023/08/07 11:25:57;;;;;;;893.03;663.70;;;;;;;;;;5049070;28;20421;-77
2023/08/07 11:28:24;;;;;;;899.17;666.50;;;;;;;;;;5045109;28;20468;-80
2023/08/07 11:30:55;;;;;;;904.78;676.03;;;;;;;;;;5047170;28;20469;-81
2023/08/07 11:33:24;;;;;;;912.83;692.78;;;;;;;;;;5050021;28;20441;-79
2023/08/07 11:35:51;;;;;;;918.83;703.17;;;;;;;;;;5047559;28;20843;-81
2023/08/07 11:38:34;;;;;;;922.90;710.20;;;;;;;;;;5054071;28;20933;-80
2023/08/07 11:41:02;;;;;;;923.50;713.20;;;;;;;;;;5048598;28;20904;-80
2023/08/07 11:43:33;;;;;;;923.72;712.42;;;;;;;;;;5049128;28;20561;-80
2023/08/07 11:46:07;;;;;;;921.85;706.75;;;;;;;;;;5041343;28;21152;-81
2023/08/07 11:48:36;;;;;;;919.63;705.10;;;;;;;;;;5037124;28;20429;-81
2023/08/07 11:51:04;;;;;;;919.60;701.05;;;;;;;;;;5047909;28;20846;-79
2023/08/07 11:53:35;;;;;;;913.47;696.42;;;;;;;;;;5044202;28;21104;-81
2023/08/07 11:56:04;;;;;;;911.95;690.47;;;;;;;;;;5041612;28;20490;-79
2023/08/07 11:58:36;;;;;;;907.72;684.47;;;;;;;;;;5039207;28;20922;-79
2023/08/07 12:01:10;;;;;;;905.85;679.00;;;;;;;;;;5041570;28;20863;-80
2023/08/07 12:03:39;;;;;;;899.88;674.53;;;;;;;;;;5036607;28;20429;-79
2023/08/07 12:06:07;;;;;;;892.58;668.33;;;;;;;;;;5032479;28;20438;-79
2023/08/07 12:08:35;;;;;;;891.55;667.00;;;;;;;;;;5037122;28;20442;-80
2023/08/07 12:11:04;;;;;;;893.05;669.83;;;;;;;;;;5040867;28;20427;-81
2023/08/07 12:13:32;;;;;;;895.95;667.13;;;;;;;;;;5046374;28;20433;-79
2023/08/07 12:15:59;;;;;;;899.83;670.47;;;;;;;;;;5044334;28;20429;-79
2023/08/07 12:18:27;;;;;;;898.10;671.35;;;;;;;;;;5045662;28;20873;-81
2023/08/07 12:21:00;;;;;;;902.70;678.63;;;;;;;;;;5042943;28;20452;-80
2023/08/07 12:23:27;;;;;;;904.80;687.22;;;;;;;;;;5048541;28;20510;-77
2023/08/07 12:25:54;;;;;;;904.63;688.65;;;;;;;;;;5044139;28;20483;-80
2023/08/07 12:28:21;;;;;;;909.95;696.10;;;;;;;;;;5040432;28;20430;-78
2023/08/07 12:30:49;;;;;;;899.55;683.72;;;;;;;;;;5047696;28;20433;-79
2023/08/07 12:33:16;;;;;;;905.30;695.55;;;;;;;;;;5044129;28;20479;-80
2023/08/07 12:35:43;;;;;;;923.88;711.13;;;;;;;;;;5043838;28;20518;-80
2023/08/07 12:38:13;;;;;;;930.60;722.53;;;;;;;;;;5044615;28;20464;-79
2023/08/07 12:40:41;;;;;;;930.17;726.55;;;;;;;;;;5044658;28;20437;-80
2023/08/07 12:43:11;;;;;;;932.28;729.88;;;;;;;;;;5037915;28;20433;-80
2023/08/07 12:45:40;;;;;;;925.13;724.67;;;;;;;;;;5044557;28;20899;-79
2023/08/07 12:48:10;;;;;;;921.08;721.65;;;;;;;;;;5041296;28;20433;-80
2023/08/07 12:50:38;;;;;;;918.75;714.88;;;;;;;;;;5036848;28;20434;-80
2023/08/07 12:53:05;;;;;;;909.97;702.35;;;;;;;;;;5046366;28;20994;-79
2023/08/07 12:55:32;;;;;;;911.47;703.87;;;;;;;;;;5042723;28;20457;-79
2023/08/07 12:58:00;;;;;;;909.20;700.33;;;;;;;;;;5041057;28;20460;-79
2023/08/07 13:00:27;;;;;;;904.45;687.22;;;;;;;;;;5036122;28;20427;-81
2023/08/07 13:02:55;;;;;;;913.78;703.72;;;;;;;;;;5042558;28;20524;-80
2023/08/07 13:05:23;;;;;;;907.17;689.28;;;;;;;;;;5044085;28;20432;-79
2023/08/07 13:07:58;;;;;;;911.10;694.35;;;;;;;;;;5036681;28;20456;-80
2023/08/07 13:10:31;;;;;;;913.03;697.72;;;;;;;;;;5042039;28;20431;-79
2023/08/07 13:13:04;;;;;;;919.77;709.23;;;;;;;;;;5044319;28;20441;-79
2023/08/07 13:15:33;;;;;;;927.30;719.87;;;;;;;;;;5042260;28;20947;-80
2023/08/07 13:18:01;;;;;;;931.08;729.97;;;;;;;;;;5038362;28;20442;-80
2023/08/07 13:20:33;;;;;;;936.95;740.08;;;;;;;;;;5038871;28;20474;-81
2023/08/07 13:23:01;;;;;;;943.83;748.03;;;;;;;;;;5043093;28;20433;-80
2023/08/07 13:25:28;;;;;;;955.83;766.17;;;;;;;;;;5042174;28;20433;-79
2023/08/07 13:27:55;;;;;;;954.33;765.95;;;;;;;;;;5048386;28;20875;-80
2023/08/07 13:30:23;;;;;;;952.10;762.93;;;;;;;;;;5046011;28;20943;-77
2023/08/07 13:32:50;;;;;;;948.35;756.13;;;;;;;;;;5042698;28;20439;-78
2023/08/07 13:35:20;;;;;;;938.33;741.42;;;;;;;;;;5052975;28;20437;-80
2023/08/07 13:37:47;;;;;;;925.88;722.17;;;;;;;;;;5050208;28;20433;-77
2023/08/07 13:40:18;;;;;;;917.13;703.83;;;;;;;;;;5042266;28;20505;-81
2023/08/07 13:42:46;;;;;;;918.33;709.67;;;;;;;;;;5044775;28;20435;-78
2023/08/07 13:45:13;;;;;;;916.97;706.47;;;;;;;;;;5048428;28;20559;-80
2023/08/07 13:47:40;;;;;;;909.78;695.80;;;;;;;;;;5041644;28;20429;-80
2023/08/07 13:50:12;;;;;;;920.22;715.92;;;;;;;;;;5048854;28;21014;-79
2023/08/07 13:52:43;;;;;;;929.50;729.67;;;;;;;;;;5050919;28;20445;-80
2023/08/07 13:55:10;;;;;;;950.33;758.35;;;;;;;;;;5042369;28;20434;-80
2023/08/07 13:57:37;;;;;;;962.30;785.30;;;;;;;;;;5048257;28;20460;-79
2023/08/07 14:00:08;;;;;;;955.93;781.23;;;;;;;;;;5049445;28;20487;-79
2023/08/07 14:02:38;;;;;;;957.47;787.03;;;;;;;;;;5050249;28;20831;-79